createdAt,value
2019-04-05T00:00:06.899Z,18.65
2019-04-05T00:02:36.441Z,19.55
2019-04-05T00:05:08.654Z,22.02
2019-04-05T00:07:38.102Z,20.80
2019-04-05T00:10:08.362Z,22.75
2019-04-05T00:12:37.812Z,24.15
2019-04-05T00:15:15.000Z,24.12
2019-04-05T00:17:38.544Z,19.32
2019-04-05T00:20:08.436Z,18.52
2019-04-05T00:22:37.879Z,18.80
2019-04-05T00:25:07.294Z,19.65
2019-04-05T00:27:36.754Z,19.62
2019-04-05T00:30:08.971Z,18.32
2019-04-05T00:32:38.404Z,20.65
2019-04-05T00:35:07.821Z,17.80
2019-04-05T00:37:37.368Z,17.00
2019-04-05T00:40:09.039Z,16.65
2019-04-05T00:42:38.482Z,19.57
2019-04-05T00:45:08.171Z,16.52
2019-04-05T00:47:37.621Z,16.00
2019-04-05T00:50:07.411Z,17.10
2019-04-05T00:52:36.964Z,22.30
2019-04-05T00:55:06.661Z,18.00
2019-04-05T00:57:36.103Z,17.37
2019-04-05T01:00:06.187Z,17.02
2019-04-05T01:02:35.732Z,18.30
2019-04-05T01:05:06.895Z,17.32
2019-04-05T01:07:36.354Z,20.10
2019-04-05T01:10:06.557Z,16.67
2019-04-05T01:12:36.008Z,18.07
2019-04-05T01:15:05.499Z,17.55
2019-04-05T01:17:34.949Z,16.50
2019-04-05T01:20:04.366Z,17.77
2019-04-05T01:22:33.917Z,18.20
2019-04-05T01:25:03.773Z,17.75
2019-04-05T01:27:33.530Z,18.50
2019-04-05T01:30:03.050Z,22.67
2019-04-05T01:32:32.596Z,20.82
2019-04-05T01:35:02.047Z,22.35
2019-04-05T01:37:31.571Z,23.40
2019-04-05T01:40:01.021Z,22.90
2019-04-05T01:42:30.508Z,23.05
2019-04-05T01:44:59.961Z,26.68
2019-04-05T01:47:29.382Z,20.75
2019-04-05T01:49:58.829Z,22.35
2019-04-05T01:52:28.485Z,19.12
2019-04-05T01:54:57.934Z,18.40
2019-04-05T01:57:27.354Z,18.20
2019-04-05T01:59:56.845Z,19.27
2019-04-05T02:02:26.265Z,20.45
2019-04-05T02:04:56.038Z,20.12
2019-04-05T02:07:25.654Z,20.72
2019-04-05T02:09:55.207Z,20.17
2019-04-05T02:12:24.637Z,21.15
2019-04-05T02:14:54.080Z,18.40
2019-04-05T02:17:23.501Z,17.42
2019-04-05T02:19:53.006Z,15.83
2019-04-05T02:22:22.434Z,17.98
2019-04-05T02:24:52.963Z,19.45
2019-04-05T02:27:22.423Z,23.02
2019-04-05T02:29:51.871Z,33.20
2019-04-05T02:32:21.289Z,16.37
2019-04-05T02:34:50.742Z,17.17
2019-04-05T02:37:20.181Z,15.93
2019-04-05T02:39:49.721Z,17.77
2019-04-05T02:42:19.155Z,16.20
2019-04-05T02:44:48.599Z,18.40
2019-04-05T02:47:18.021Z,17.20
2019-04-05T02:49:47.485Z,17.80
2019-04-05T02:52:16.894Z,19.85
2019-04-05T02:54:46.678Z,19.70
2019-04-05T02:57:16.579Z,20.97
2019-04-05T02:59:46.028Z,19.73
2019-04-05T03:02:15.444Z,20.43
2019-04-05T03:04:45.076Z,19.80
2019-04-05T03:07:14.492Z,28.25
2019-04-05T03:09:44.040Z,19.62
2019-04-05T03:12:13.456Z,19.12
2019-04-05T03:14:42.914Z,18.80
2019-04-05T03:17:12.335Z,17.37
2019-04-05T03:19:41.868Z,16.07
2019-04-05T03:22:12.123Z,19.55
2019-04-05T03:24:42.139Z,19.45
2019-04-05T03:27:14.596Z,20.72
2019-04-05T03:29:44.053Z,24.80
2019-04-05T03:32:13.461Z,22.80
2019-04-05T03:34:42.970Z,21.60
2019-04-05T03:37:12.519Z,21.10
2019-04-05T03:39:41.986Z,20.90
2019-04-05T03:42:11.451Z,20.85
2019-04-05T03:44:40.992Z,20.75
2019-04-05T03:47:10.414Z,20.70
2019-04-05T03:49:39.867Z,21.10
2019-04-05T03:52:09.335Z,19.85
2019-04-05T03:54:38.793Z,21.35
2019-04-05T03:57:08.211Z,22.82
2019-04-05T03:59:37.632Z,23.40
2019-04-05T04:02:07.071Z,22.37
2019-04-05T04:04:36.496Z,22.05
2019-04-05T04:07:06.041Z,19.73
2019-04-05T04:09:35.474Z,20.43
2019-04-05T04:12:05.025Z,21.05
2019-04-05T04:14:34.457Z,21.65
2019-04-05T04:17:12.309Z,22.02
2019-04-05T04:19:35.535Z,20.55
2019-04-05T04:22:10.932Z,20.80
2019-04-05T04:24:40.347Z,26.25
2019-04-05T04:27:09.819Z,45.25
2019-04-05T04:29:39.906Z,29.12
2019-04-05T04:32:09.467Z,26.02
2019-04-05T04:34:38.976Z,22.95
2019-04-05T04:37:08.427Z,19.92
2019-04-05T04:39:37.843Z,21.10
2019-04-05T04:42:07.398Z,28.42
2019-04-05T04:44:36.818Z,22.65
2019-04-05T04:47:06.278Z,19.17
2019-04-05T04:49:35.704Z,19.62
2019-04-05T04:52:05.155Z,21.73
2019-04-05T04:54:34.574Z,19.77
2019-04-05T04:57:04.030Z,25.00
2019-04-05T04:59:33.548Z,19.60
2019-04-05T05:02:04.306Z,18.57
2019-04-05T05:04:33.829Z,18.80
2019-04-05T05:07:03.299Z,18.15
2019-04-05T05:09:32.725Z,17.80
2019-04-05T05:12:02.269Z,17.75
2019-04-05T05:14:31.696Z,17.50
2019-04-05T05:17:01.247Z,17.52
2019-04-05T05:19:30.768Z,21.07
2019-04-05T05:22:00.234Z,17.85
2019-04-05T05:24:29.935Z,19.05
2019-04-05T05:26:59.595Z,19.55
2019-04-05T05:29:29.001Z,18.20
2019-04-05T05:31:58.687Z,19.15
2019-04-05T05:34:28.101Z,18.80
2019-04-05T05:36:57.981Z,20.23
2019-04-05T05:39:27.417Z,31.70
2019-04-05T05:41:56.948Z,44.70
2019-04-05T05:44:26.462Z,41.45
2019-04-05T05:46:56.226Z,36.03
2019-04-05T05:49:25.678Z,38.70
2019-04-05T05:51:55.239Z,47.73
2019-04-05T05:54:24.663Z,41.58
2019-04-05T05:56:54.117Z,35.73
2019-04-05T05:59:23.534Z,35.20
2019-04-05T06:01:53.345Z,41.00
2019-04-05T06:04:22.870Z,26.97
2019-04-05T06:06:52.319Z,28.60
2019-04-05T06:09:21.844Z,21.48
2019-04-05T06:11:51.301Z,15.30
2019-04-05T06:14:20.721Z,15.40
2019-04-05T06:16:50.197Z,17.45
2019-04-05T06:19:19.781Z,13.70
2019-04-05T06:21:49.387Z,14.53
2019-04-05T06:24:18.941Z,13.60
2019-04-05T06:26:51.047Z,13.50
2019-04-05T06:29:20.600Z,11.90
2019-04-05T06:31:50.246Z,13.48
2019-04-05T06:34:19.672Z,32.28
2019-04-05T06:36:51.171Z,13.95
2019-04-05T06:39:20.764Z,15.38
2019-04-05T06:41:50.377Z,12.80
2019-04-05T06:44:19.897Z,16.27
2019-04-05T06:46:49.351Z,12.95
2019-04-05T06:49:18.884Z,13.62
2019-04-05T06:51:48.437Z,13.90
2019-04-05T06:54:17.884Z,14.60
2019-04-05T06:56:47.303Z,14.70
2019-04-05T06:59:19.337Z,13.60
2019-04-05T07:01:47.861Z,13.25
2019-04-05T07:04:17.405Z,13.15
2019-04-05T07:06:46.834Z,12.20
2019-04-05T07:09:16.407Z,12.90
2019-04-05T07:11:45.929Z,12.73
2019-04-05T07:14:15.378Z,12.70
2019-04-05T07:16:44.900Z,12.73
2019-04-05T07:19:14.355Z,12.23
2019-04-05T07:21:43.772Z,13.18
2019-04-05T07:24:13.527Z,12.88
2019-04-05T07:26:42.949Z,12.35
2019-04-05T07:29:12.399Z,13.20
2019-04-05T07:31:41.823Z,13.00
2019-04-05T07:34:11.271Z,12.15
2019-04-05T07:36:40.685Z,11.88
2019-04-05T07:39:10.237Z,11.35
2019-04-05T07:41:39.649Z,11.15
2019-04-05T07:44:09.093Z,12.13
2019-04-05T07:46:38.513Z,11.38
2019-04-05T07:49:07.962Z,11.60
2019-04-05T07:51:37.386Z,12.28
2019-04-05T07:54:06.941Z,11.03
2019-04-05T07:56:36.358Z,11.22
2019-04-05T07:59:05.908Z,12.47
2019-04-05T08:01:35.433Z,11.43
2019-04-05T08:04:04.893Z,10.90
2019-04-05T08:06:34.582Z,11.70
2019-04-05T08:09:09.577Z,11.35
2019-04-05T08:11:38.998Z,11.70
2019-04-05T08:14:08.556Z,10.93
2019-04-05T08:16:37.961Z,11.95
2019-04-05T08:19:07.424Z,10.60
2019-04-05T08:21:36.858Z,11.57
2019-04-05T08:24:06.325Z,28.45
2019-04-05T08:26:35.759Z,11.12
2019-04-05T08:29:05.298Z,11.45
2019-04-05T08:31:34.925Z,10.25
2019-04-05T08:34:04.386Z,10.45
2019-04-05T08:36:33.811Z,10.95
2019-04-05T08:39:05.314Z,11.00
2019-04-05T08:41:35.064Z,10.35
2019-04-05T08:44:04.782Z,11.00
2019-04-05T08:46:35.087Z,10.85
2019-04-05T08:49:10.476Z,9.65
2019-04-05T08:51:35.733Z,11.48
2019-04-05T08:54:05.664Z,10.13
2019-04-05T08:56:35.312Z,10.58
2019-04-05T08:59:04.858Z,10.32
2019-04-05T09:01:34.496Z,9.60
2019-04-05T09:04:04.460Z,9.00
2019-04-05T09:06:33.905Z,10.13
2019-04-05T09:09:06.118Z,10.48
2019-04-05T09:11:35.624Z,9.15
2019-04-05T09:14:05.355Z,9.30
2019-04-05T09:16:34.808Z,8.28
2019-04-05T09:19:04.325Z,9.10
2019-04-05T09:21:33.787Z,9.03
2019-04-05T09:24:03.697Z,8.45
2019-04-05T09:26:33.247Z,8.88
2019-04-05T09:29:02.839Z,8.95
2019-04-05T09:31:32.441Z,7.62
2019-04-05T09:34:02.418Z,8.43
2019-04-05T09:36:31.886Z,6.97
2019-04-05T09:39:01.304Z,7.62
2019-04-05T09:41:30.857Z,7.22
2019-04-05T09:44:00.270Z,7.12
2019-04-05T09:46:29.917Z,7.92
2019-04-05T09:48:59.328Z,7.30
2019-04-05T09:51:28.777Z,8.65
2019-04-05T09:53:58.189Z,8.13
2019-04-05T09:56:27.631Z,7.08
2019-04-05T09:58:57.046Z,7.55
2019-04-05T10:01:26.508Z,8.15
2019-04-05T10:03:55.928Z,8.33
2019-04-05T10:06:25.581Z,7.53
2019-04-05T10:08:54.992Z,7.30
2019-04-05T10:11:24.441Z,8.28
2019-04-05T10:13:53.859Z,8.15
2019-04-05T10:16:23.319Z,7.97
2019-04-05T10:18:52.738Z,9.33
2019-04-05T10:21:22.182Z,9.05
2019-04-05T10:23:51.597Z,7.60
2019-04-05T10:26:21.045Z,8.15
2019-04-05T10:28:50.459Z,8.50
2019-04-05T10:31:20.106Z,8.30
2019-04-05T10:33:49.518Z,7.37
2019-04-05T10:36:20.143Z,7.90
2019-04-05T10:38:49.757Z,8.00
2019-04-05T10:41:19.201Z,7.45
2019-04-05T10:43:48.674Z,8.35
2019-04-05T10:46:18.124Z,8.00
2019-04-05T10:48:47.538Z,7.60
2019-04-05T10:51:16.984Z,6.67
2019-04-05T10:53:46.403Z,7.25
2019-04-05T10:56:15.943Z,6.42
2019-04-05T10:58:45.365Z,6.42
2019-04-05T11:01:14.816Z,6.42
2019-04-05T11:03:44.327Z,6.58
2019-04-05T11:06:13.793Z,6.33
2019-04-05T11:08:43.211Z,9.45
2019-04-05T11:11:12.662Z,6.90
2019-04-05T11:13:47.573Z,6.15
2019-04-05T11:16:28.305Z,6.03
2019-04-05T11:18:57.829Z,7.30
2019-04-05T11:21:27.390Z,8.70
2019-04-05T11:23:56.806Z,6.45
2019-04-05T11:26:26.266Z,7.45
2019-04-05T11:28:55.679Z,6.80
2019-04-05T11:31:25.229Z,7.20
2019-04-05T11:33:54.649Z,7.60
2019-04-05T11:36:24.471Z,6.08
2019-04-05T11:38:53.880Z,7.58
2019-04-05T11:41:23.811Z,8.38
2019-04-05T11:43:53.334Z,7.28
2019-04-05T11:46:22.787Z,7.22
2019-04-05T11:48:52.240Z,11.33
2019-04-05T11:51:21.690Z,6.92
2019-04-05T11:53:51.330Z,6.28
2019-04-05T11:56:20.981Z,6.30
2019-04-05T11:58:51.098Z,6.87
2019-04-05T12:01:23.695Z,5.55
2019-04-05T12:03:53.273Z,6.33
2019-04-05T12:06:22.685Z,6.65
2019-04-05T12:08:52.137Z,7.10
2019-04-05T12:11:21.556Z,7.12
2019-04-05T12:13:51.117Z,6.28
2019-04-05T12:16:20.535Z,11.95
2019-04-05T12:18:50.843Z,5.40
2019-04-05T12:21:21.036Z,9.30
2019-04-05T12:23:50.595Z,6.15
2019-04-05T12:26:20.006Z,5.05
2019-04-05T12:28:49.462Z,5.03
2019-04-05T12:31:19.376Z,5.15
2019-04-05T12:33:51.381Z,5.47
2019-04-05T12:36:22.039Z,5.87
2019-04-05T12:38:53.990Z,5.50
2019-04-05T12:41:22.215Z,5.40
2019-04-05T12:43:51.666Z,5.08
2019-04-05T12:46:21.171Z,4.95
2019-04-05T12:48:50.631Z,6.00
2019-04-05T12:51:20.043Z,7.00
2019-04-05T12:53:49.484Z,5.85
2019-04-05T12:56:19.103Z,5.60
2019-04-05T12:58:48.554Z,4.95
2019-04-05T13:01:17.970Z,5.75
2019-04-05T13:03:47.404Z,5.75
2019-04-05T13:06:16.816Z,4.97
2019-04-05T13:08:46.371Z,5.37
2019-04-05T13:11:15.785Z,6.58
2019-04-05T13:13:45.337Z,5.83
2019-04-05T13:16:14.743Z,5.12
2019-04-05T13:18:44.282Z,5.58
2019-04-05T13:21:15.632Z,5.58
2019-04-05T13:23:45.096Z,12.82
2019-04-05T13:26:14.509Z,7.75
2019-04-05T13:28:44.159Z,13.15
2019-04-05T13:31:13.607Z,5.78
2019-04-05T13:33:43.057Z,5.20
2019-04-05T13:36:12.473Z,5.65
2019-04-05T13:38:53.948Z,5.50
2019-04-05T13:41:13.129Z,4.40
2019-04-05T13:43:42.569Z,4.60
2019-04-05T13:46:21.272Z,4.50
2019-04-05T13:48:43.164Z,3.85
2019-04-05T13:51:13.073Z,5.55
2019-04-05T13:53:42.601Z,5.50
2019-04-05T13:56:12.012Z,5.03
2019-04-05T13:58:41.456Z,4.85
2019-04-05T14:01:10.924Z,5.22
2019-04-05T14:03:40.379Z,3.90
2019-04-05T14:06:10.794Z,9.73
2019-04-05T14:08:41.927Z,6.45
2019-04-05T14:11:11.820Z,6.10
2019-04-05T14:13:42.964Z,13.32
2019-04-05T14:16:13.142Z,6.03
2019-04-05T14:18:47.975Z,8.60
2019-04-05T14:21:13.860Z,6.40
2019-04-05T14:23:43.281Z,7.62
2019-04-05T14:26:12.820Z,6.17
2019-04-05T14:28:42.232Z,6.08
2019-04-05T14:31:11.680Z,5.87
2019-04-05T14:33:41.111Z,30.97
2019-04-05T14:36:10.566Z,6.37
2019-04-05T14:38:40.087Z,6.30
2019-04-05T14:41:09.528Z,6.80
2019-04-05T14:43:38.952Z,6.03
2019-04-05T14:46:08.970Z,5.85
2019-04-05T14:48:38.484Z,5.85
2019-04-05T14:51:07.948Z,6.12
2019-04-05T14:53:37.494Z,6.17
2019-04-05T14:56:06.948Z,17.07
2019-04-05T14:58:36.369Z,8.33
2019-04-05T15:01:05.951Z,7.08
2019-04-05T15:03:35.368Z,8.53
2019-04-05T15:06:05.172Z,7.72
2019-04-05T15:08:35.102Z,7.90
2019-04-05T15:11:04.813Z,8.13
2019-04-05T15:13:34.645Z,13.43
2019-04-05T15:16:04.107Z,10.68
2019-04-05T15:18:33.525Z,5.90
2019-04-05T15:21:05.461Z,6.17
2019-04-05T15:23:35.076Z,9.73
2019-04-05T15:26:04.589Z,7.58
2019-04-05T15:28:34.006Z,7.08
2019-04-05T15:31:03.908Z,7.25
2019-04-05T15:33:33.319Z,6.05
2019-04-05T15:36:03.228Z,6.78
2019-04-05T15:38:32.642Z,20.80
2019-04-05T15:41:02.105Z,23.00
2019-04-05T15:43:31.618Z,43.30
2019-04-05T15:46:01.215Z,41.37
2019-04-05T15:48:30.735Z,18.62
2019-04-05T15:51:00.189Z,12.88
2019-04-05T15:53:31.644Z,10.20
2019-04-05T15:56:04.024Z,7.25
2019-04-05T15:58:31.490Z,7.50
2019-04-05T16:01:04.183Z,7.87
2019-04-05T16:03:33.373Z,7.25
2019-04-05T16:06:02.823Z,8.45
2019-04-05T16:08:32.336Z,8.43
2019-04-05T16:11:01.990Z,6.97
2019-04-05T16:13:31.408Z,6.33
2019-04-05T16:16:00.865Z,18.00
2019-04-05T16:18:30.408Z,11.30
2019-04-05T16:20:59.834Z,20.55
2019-04-05T16:23:29.386Z,31.57
2019-04-05T16:25:58.814Z,15.00
2019-04-05T16:28:28.363Z,11.68
2019-04-05T16:30:58.780Z,16.12
2019-04-05T16:33:29.954Z,12.07
2019-04-05T16:36:02.260Z,13.55
2019-04-05T16:38:32.384Z,14.85
2019-04-05T16:41:01.814Z,15.28
2019-04-05T16:43:31.363Z,20.57
2019-04-05T16:46:00.960Z,18.15
2019-04-05T16:48:30.517Z,22.65
2019-04-05T16:50:59.940Z,15.08
2019-04-05T16:53:29.393Z,19.40
2019-04-05T16:55:58.806Z,22.22
2019-04-05T16:58:28.253Z,39.03
2019-04-05T17:00:57.682Z,40.70
2019-04-05T17:03:27.137Z,38.70
2019-04-05T17:05:56.554Z,29.18
2019-04-05T17:08:26.118Z,36.80
2019-04-05T17:10:55.631Z,29.00
2019-04-05T17:13:25.252Z,27.30
2019-04-05T17:15:54.679Z,30.57
2019-04-05T17:18:24.242Z,26.07
2019-04-05T17:20:53.777Z,29.75
2019-04-05T17:23:23.229Z,32.00
2019-04-05T17:25:52.654Z,31.25
2019-04-05T17:28:22.212Z,34.13
2019-04-05T17:30:51.662Z,30.08
2019-04-05T17:33:21.217Z,37.30
2019-04-05T17:35:50.646Z,38.92
2019-04-05T17:38:20.098Z,31.25
2019-04-05T17:40:49.521Z,27.87
2019-04-05T17:43:19.072Z,35.17
2019-04-05T17:45:48.597Z,33.00
2019-04-05T17:48:18.148Z,35.17
2019-04-05T17:50:47.680Z,76.42
2019-04-05T17:53:17.148Z,67.50
2019-04-05T17:55:46.574Z,54.60
2019-04-05T17:58:16.028Z,36.58
2019-04-05T18:00:45.450Z,35.03
2019-04-05T18:03:14.900Z,35.38
2019-04-05T18:05:44.320Z,25.43
2019-04-05T18:08:13.775Z,24.82
2019-04-05T18:10:43.677Z,22.75
2019-04-05T18:13:13.222Z,21.37
2019-04-05T18:15:52.505Z,21.42
2019-04-05T18:18:13.997Z,21.23
2019-04-05T18:20:43.518Z,22.25
2019-04-05T18:23:24.276Z,19.92
2019-04-05T18:25:44.095Z,18.57
2019-04-05T18:28:13.549Z,19.23
2019-04-05T18:30:43.000Z,19.57
2019-04-05T18:33:12.448Z,25.10
2019-04-05T18:35:42.037Z,31.07
2019-04-05T18:38:11.490Z,31.57
2019-04-05T18:40:41.014Z,35.05
2019-04-05T18:43:10.474Z,27.55
2019-04-05T18:45:39.928Z,34.10
2019-04-05T18:48:09.358Z,47.95
2019-04-05T18:50:38.807Z,35.48
2019-04-05T18:53:08.240Z,40.15
2019-04-05T18:55:37.974Z,41.92
2019-04-05T18:58:07.399Z,41.20
2019-04-05T19:00:37.081Z,41.60
2019-04-05T19:03:06.610Z,36.53
2019-04-05T19:05:36.371Z,25.02
2019-04-05T19:08:06.302Z,23.35
2019-04-05T19:10:37.478Z,33.70
2019-04-05T19:13:07.159Z,30.70
2019-04-05T19:15:37.056Z,23.92
2019-04-05T19:18:06.727Z,25.25
2019-04-05T19:20:37.135Z,45.48
2019-04-05T19:23:06.516Z,28.80
2019-04-05T19:25:35.975Z,25.92
2019-04-05T19:28:05.408Z,47.27
2019-04-05T19:50:45.631Z,22.00
2019-04-05T19:53:15.058Z,22.90
2019-04-05T19:55:44.612Z,22.20
2019-04-05T19:58:14.030Z,25.50
2019-04-05T20:00:43.490Z,23.67
2019-04-05T20:03:12.918Z,25.17
2019-04-05T20:05:42.482Z,28.00
2019-04-05T20:08:11.951Z,25.57
2019-04-05T20:10:41.503Z,26.52
2019-04-05T20:13:10.927Z,27.48
2019-04-05T20:15:40.384Z,32.03
2019-04-05T20:18:09.817Z,25.35
2019-04-05T20:20:39.362Z,27.50
2019-04-05T20:23:08.794Z,27.15
2019-04-05T20:25:38.259Z,26.33
2019-04-05T20:28:07.943Z,29.05
2019-04-05T20:30:37.492Z,28.92
2019-04-05T20:33:06.916Z,37.15
2019-04-05T20:35:36.451Z,31.17
2019-04-05T20:38:06.258Z,29.87
2019-04-05T20:40:36.274Z,30.52
2019-04-05T20:43:05.808Z,30.30
2019-04-05T20:45:35.561Z,27.85
2019-04-05T20:48:05.034Z,23.83
2019-04-05T20:50:34.445Z,22.95
2019-04-05T20:53:03.867Z,22.10
2019-04-05T20:55:33.317Z,23.67
2019-04-05T20:58:02.744Z,20.65
2019-04-05T21:00:32.571Z,22.22
2019-04-05T21:03:01.995Z,19.85
2019-04-05T21:05:31.546Z,21.30
2019-04-05T21:08:01.070Z,21.20
2019-04-05T21:10:30.515Z,17.92
2019-04-05T21:12:59.941Z,17.62
2019-04-05T21:15:29.411Z,17.73
2019-04-05T21:17:58.860Z,20.35
2019-04-05T21:20:28.321Z,25.20
2019-04-05T21:22:57.772Z,20.05
2019-04-05T21:25:27.298Z,23.65
2019-04-05T21:27:56.755Z,20.68
2019-04-05T21:30:26.171Z,17.92
2019-04-05T21:32:55.624Z,19.32
2019-04-05T21:35:25.043Z,24.82
2019-04-05T21:37:54.498Z,22.32
2019-04-05T21:40:24.026Z,23.15
2019-04-05T21:42:53.474Z,23.85
2019-04-05T21:45:22.890Z,23.87
2019-04-05T21:47:52.459Z,26.00
2019-04-05T21:50:22.042Z,23.00
2019-04-05T21:52:51.438Z,23.73
2019-04-05T21:55:20.966Z,26.73
2019-04-05T21:57:50.586Z,24.85
2019-04-05T22:00:27.886Z,23.57
2019-04-05T22:02:57.441Z,21.62
2019-04-05T22:05:26.861Z,24.40
2019-04-05T22:07:56.314Z,23.18
2019-04-05T22:10:25.741Z,28.67
2019-04-05T22:12:55.191Z,24.20
2019-04-05T22:15:24.618Z,23.87
2019-04-05T22:17:55.521Z,26.05
2019-04-05T22:20:24.953Z,23.35
2019-04-05T22:22:54.414Z,24.32
2019-04-05T22:25:23.839Z,22.45
2019-04-05T22:27:53.291Z,22.87
2019-04-05T22:30:22.721Z,24.75
2019-04-05T22:32:52.186Z,23.38
2019-04-05T22:35:21.708Z,22.42
2019-04-05T22:37:51.160Z,24.30
2019-04-05T22:40:20.590Z,20.82
2019-04-05T22:42:50.137Z,21.50
2019-04-05T22:45:19.658Z,21.65
2019-04-05T22:47:49.117Z,23.42
2019-04-05T22:50:18.638Z,26.07
2019-04-05T22:52:48.086Z,27.02
2019-04-05T22:55:17.813Z,26.80
2019-04-05T22:57:47.465Z,25.60
2019-04-05T23:00:16.988Z,25.95
2019-04-05T23:02:46.661Z,23.02
2019-04-05T23:05:16.189Z,22.35
2019-04-05T23:07:45.734Z,22.37
2019-04-05T23:10:15.259Z,24.27
2019-04-05T23:12:44.813Z,25.32
2019-04-05T23:15:14.355Z,23.87
2019-04-05T23:17:43.802Z,21.68
2019-04-05T23:20:13.237Z,21.12
2019-04-05T23:22:42.784Z,20.97
2019-04-05T23:25:21.460Z,21.00
2019-04-05T23:27:43.555Z,21.20
2019-04-05T23:30:13.047Z,22.35
2019-04-05T23:32:42.503Z,21.77
2019-04-05T23:35:12.031Z,21.60
2019-04-05T23:37:41.585Z,22.13
2019-04-05T23:40:11.014Z,22.40
2019-04-05T23:42:40.477Z,22.32
2019-04-05T23:45:09.998Z,23.25
2019-04-05T23:47:39.457Z,23.18
2019-04-05T23:50:08.876Z,23.62
2019-04-05T23:52:38.442Z,23.92
2019-04-05T23:55:08.081Z,22.82
2019-04-05T23:57:37.551Z,27.58
